sensor_id;sensor_type;location;lat;lon;timestamp;temperature;humidity
18067;DHT22;9158;51.528;7.192;2023-05-15T00:00:27;14.20;99.90
18067;DHT22;9158;51.528;7.192;2023-05-15T00:00:58;14.20;99.90
18067;DHT22;9158;51.528;7.192;2023-05-15T00:01:29;14.30;99.90
18067;DHT22;9158;51.528;7.192;2023-05-15T00:02:01;14.30;99.90
18067;DHT22;9158;51.528;7.192;2023-05-15T00:02:32;14.30;99.90
18067;DHT22;9158;51.528;7.192;2023-05-15T00:03:04;14.30;99.90
18067;DHT22;9158;51.528;7.192;2023-05-15T00:03:35;14.30;99.90
18067;DHT22;9158;51.528;7.192;2023-05-15T00:04:07;14.30;99.90
18067;DHT22;9158;51.528;7.192;2023-05-15T00:04:38;14.30;99.90
18067;DHT22;9158;51.528;7.192;2023-05-15T00:05:09;14.30;99.90
18067;DHT22;9158;51.528;7.192;2023-05-15T00:05:41;14.40;99.90
18067;DHT22;9158;51.528;7.192;2023-05-15T00:06:12;14.30;99.90
18067;DHT22;9158;51.528;7.192;2023-05-15T00:06:43;14.30;99.90
18067;DHT22;9158;51.528;7.192;2023-05-15T00:07:15;14.20;99.90
18067;DHT22;9158;51.528;7.192;2023-05-15T00:07:46;14.20;99.90
18067;DHT22;9158;51.528;7.192;2023-05-15T00:08:17;14.20;99.90
18067;DHT22;9158;51.528;7.192;2023-05-15T00:08:50;14.10;99.90
18067;DHT22;9158;51.528;7.192;2023-05-15T00:09:20;14.10;99.90
18067;DHT22;9158;51.528;7.192;2023-05-15T00:09:51;14.20;99.90
18067;DHT22;9158;51.528;7.192;2023-05-15T00:10:23;14.20;99.90
18067;DHT22;9158;51.528;7.192;2023-05-15T00:10:54;14.20;99.90
18067;DHT22;9158;51.528;7.192;2023-05-15T00:11:25;14.20;99.90
18067;DHT22;9158;51.528;7.192;2023-05-15T00:11:57;14.20;99.90
18067;DHT22;9158;51.528;7.192;2023-05-15T00:12:28;14.20;99.90
18067;DHT22;9158;51.528;7.192;2023-05-15T00:12:59;14.20;99.90
18067;DHT22;9158;51.528;7.192;2023-05-15T00:13:31;14.20;99.90
18067;DHT22;9158;51.528;7.192;2023-05-15T00:14:02;14.20;99.90
18067;DHT22;9158;51.528;7.192;2023-05-15T00:14:33;14.20;99.90
18067;DHT22;9158;51.528;7.192;2023-05-15T00:15:06;14.20;99.90
18067;DHT22;9158;51.528;7.192;2023-05-15T00:15:39;14.20;99.90
18067;DHT22;9158;51.528;7.192;2023-05-15T00:16:10;14.20;99.90
18067;DHT22;9158;51.528;7.192;2023-05-15T00:16:41;14.20;99.90
18067;DHT22;9158;51.528;7.192;2023-05-15T00:17:12;14.10;99.90
18067;DHT22;9158;51.528;7.192;2023-05-15T00:17:43;14.10;99.90
18067;DHT22;9158;51.528;7.192;2023-05-15T00:18:15;14.00;99.90
18067;DHT22;9158;51.528;7.192;2023-05-15T00:18:46;14.00;99.90
18067;DHT22;9158;51.528;7.192;2023-05-15T00:19:17;14.00;99.90
18067;DHT22;9158;51.528;7.192;2023-05-15T00:19:49;14.00;99.90
18067;DHT22;9158;51.528;7.192;2023-05-15T00:20:20;14.00;99.90
18067;DHT22;9158;51.528;7.192;2023-05-15T00:20:51;13.90;99.90
18067;DHT22;9158;51.528;7.192;2023-05-15T00:21:23;13.90;99.90
18067;DHT22;9158;51.528;7.192;2023-05-15T00:21:54;13.90;99.90
18067;DHT22;9158;51.528;7.192;2023-05-15T00:22:25;14.00;99.90
18067;DHT22;9158;51.528;7.192;2023-05-15T00:22:57;14.00;99.90
18067;DHT22;9158;51.528;7.192;2023-05-15T00:23:28;14.00;99.90
18067;DHT22;9158;51.528;7.192;2023-05-15T00:23:59;14.00;99.90
18067;DHT22;9158;51.528;7.192;2023-05-15T00:24:31;14.00;99.90
18067;DHT22;9158;51.528;7.192;2023-05-15T00:25:02;14.00;99.90
18067;DHT22;9158;51.528;7.192;2023-05-15T00:25:33;14.10;99.90
18067;DHT22;9158;51.528;7.192;2023-05-15T00:26:05;14.10;99.90
18067;DHT22;9158;51.528;7.192;2023-05-15T00:26:36;14.10;99.90
18067;DHT22;9158;51.528;7.192;2023-05-15T00:27:07;14.10;99.90
18067;DHT22;9158;51.528;7.192;2023-05-15T00:27:38;14.10;99.90
18067;DHT22;9158;51.528;7.192;2023-05-15T00:28:10;14.10;99.90
18067;DHT22;9158;51.528;7.192;2023-05-15T00:28:41;14.20;99.90
18067;DHT22;9158;51.528;7.192;2023-05-15T00:29:12;14.20;99.90
18067;DHT22;9158;51.528;7.192;2023-05-15T00:29:43;14.20;99.90
18067;DHT22;9158;51.528;7.192;2023-05-15T00:30:16;14.20;99.90
18067;DHT22;9158;51.528;7.192;2023-05-15T00:30:49;14.20;99.90
18067;DHT22;9158;51.528;7.192;2023-05-15T00:31:20;14.20;99.90
18067;DHT22;9158;51.528;7.192;2023-05-15T00:31:52;14.30;99.90
18067;DHT22;9158;51.528;7.192;2023-05-15T00:32:23;14.20;99.90
18067;DHT22;9158;51.528;7.192;2023-05-15T00:32:55;14.20;99.90
18067;DHT22;9158;51.528;7.192;2023-05-15T00:33:27;14.20;99.90
18067;DHT22;9158;51.528;7.192;2023-05-15T00:33:58;14.20;99.90
18067;DHT22;9158;51.528;7.192;2023-05-15T00:34:29;14.10;99.90
18067;DHT22;9158;51.528;7.192;2023-05-15T00:35:01;14.20;99.90
18067;DHT22;9158;51.528;7.192;2023-05-15T00:35:34;14.20;99.90
18067;DHT22;9158;51.528;7.192;2023-05-15T00:36:06;14.10;99.90
18067;DHT22;9158;51.528;7.192;2023-05-15T00:36:38;14.10;99.90
18067;DHT22;9158;51.528;7.192;2023-05-15T00:37:09;14.10;99.90
18067;DHT22;9158;51.528;7.192;2023-05-15T00:37:42;14.10;99.90
18067;DHT22;9158;51.528;7.192;2023-05-15T00:38:15;14.10;99.90
18067;DHT22;9158;51.528;7.192;2023-05-15T00:38:45;14.10;99.90
18067;DHT22;9158;51.528;7.192;2023-05-15T00:39:16;14.10;99.90
18067;DHT22;9158;51.528;7.192;2023-05-15T00:39:48;14.00;99.90
18067;DHT22;9158;51.528;7.192;2023-05-15T00:40:21;13.90;99.90
18067;DHT22;9158;51.528;7.192;2023-05-15T00:40:54;13.90;99.90
18067;DHT22;9158;51.528;7.192;2023-05-15T00:41:26;13.80;99.90
18067;DHT22;9158;51.528;7.192;2023-05-15T00:42:02;13.80;99.90
18067;DHT22;9158;51.528;7.192;2023-05-15T00:42:34;13.80;99.90
18067;DHT22;9158;51.528;7.192;2023-05-15T00:43:05;13.80;99.90
18067;DHT22;9158;51.528;7.192;2023-05-15T00:43:38;13.70;99.90
18067;DHT22;9158;51.528;7.192;2023-05-15T00:44:10;13.70;99.90
18067;DHT22;9158;51.528;7.192;2023-05-15T00:44:43;13.70;99.90
18067;DHT22;9158;51.528;7.192;2023-05-15T00:45:15;13.70;99.90
18067;DHT22;9158;51.528;7.192;2023-05-15T00:45:51;12.80;99.90
18067;DHT22;9158;51.528;7.192;2023-05-15T00:46:22;13.80;99.90
18067;DHT22;9158;51.528;7.192;2023-05-15T00:46:55;13.80;99.90
18067;DHT22;9158;51.528;7.192;2023-05-15T00:47:28;13.70;99.90
18067;DHT22;9158;51.528;7.192;2023-05-15T00:48:00;13.80;99.90
18067;DHT22;9158;51.528;7.192;2023-05-15T00:48:32;13.70;99.90
18067;DHT22;9158;51.528;7.192;2023-05-15T00:49:05;13.70;99.90
18067;DHT22;9158;51.528;7.192;2023-05-15T00:49:37;13.70;99.90
18067;DHT22;9158;51.528;7.192;2023-05-15T00:50:09;13.80;99.90
18067;DHT22;9158;51.528;7.192;2023-05-15T00:50:42;13.80;99.90
18067;DHT22;9158;51.528;7.192;2023-05-15T00:51:13;13.80;99.90
18067;DHT22;9158;51.528;7.192;2023-05-15T00:51:44;13.80;99.90
18067;DHT22;9158;51.528;7.192;2023-05-15T00:52:15;13.80;99.90
18067;DHT22;9158;51.528;7.192;2023-05-15T00:52:49;13.80;99.90
18067;DHT22;9158;51.528;7.192;2023-05-15T00:53:21;13.80;99.90
18067;DHT22;9158;51.528;7.192;2023-05-15T00:53:53;13.80;99.90
18067;DHT22;9158;51.528;7.192;2023-05-15T00:54:26;13.90;99.90
18067;DHT22;9158;51.528;7.192;2023-05-15T00:54:57;13.90;99.90
18067;DHT22;9158;51.528;7.192;2023-05-15T00:55:30;13.90;99.90
18067;DHT22;9158;51.528;7.192;2023-05-15T00:56:03;13.90;99.90
18067;DHT22;9158;51.528;7.192;2023-05-15T00:56:35;13.80;99.90
18067;DHT22;9158;51.528;7.192;2023-05-15T00:57:07;13.90;99.90
18067;DHT22;9158;51.528;7.192;2023-05-15T00:57:41;13.80;99.90
18067;DHT22;9158;51.528;7.192;2023-05-15T00:58:13;13.90;99.90
18067;DHT22;9158;51.528;7.192;2023-05-15T00:58:45;13.90;99.90
18067;DHT22;9158;51.528;7.192;2023-05-15T00:59:18;13.90;99.90
18067;DHT22;9158;51.528;7.192;2023-05-15T00:59:51;13.90;99.90
18067;DHT22;9158;51.528;7.192;2023-05-15T01:00:23;13.90;99.90
18067;DHT22;9158;51.528;7.192;2023-05-15T01:00:57;13.80;99.90
18067;DHT22;9158;51.528;7.192;2023-05-15T01:01:28;13.80;99.90
18067;DHT22;9158;51.528;7.192;2023-05-15T01:02:03;13.80;99.90
18067;DHT22;9158;51.528;7.192;2023-05-15T01:02:35;13.80;99.90
18067;DHT22;9158;51.528;7.192;2023-05-15T01:03:06;13.80;99.90
18067;DHT22;9158;51.528;7.192;2023-05-15T01:03:37;13.80;99.90
18067;DHT22;9158;51.528;7.192;2023-05-15T01:04:09;13.80;99.90
18067;DHT22;9158;51.528;7.192;2023-05-15T01:04:41;13.90;99.90
18067;DHT22;9158;51.528;7.192;2023-05-15T01:05:12;13.90;99.90
18067;DHT22;9158;51.528;7.192;2023-05-15T01:05:44;13.90;99.90
18067;DHT22;9158;51.528;7.192;2023-05-15T01:06:16;13.90;99.90
18067;DHT22;9158;51.528;7.192;2023-05-15T01:06:47;13.90;99.90
18067;DHT22;9158;51.528;7.192;2023-05-15T01:07:18;13.90;99.90
18067;DHT22;9158;51.528;7.192;2023-05-15T01:07:56;13.90;99.90
18067;DHT22;9158;51.528;7.192;2023-05-15T01:08:37;13.90;99.90
18067;DHT22;9158;51.528;7.192;2023-05-15T01:09:10;13.90;99.90
18067;DHT22;9158;51.528;7.192;2023-05-15T01:09:43;13.80;99.90
18067;DHT22;9158;51.528;7.192;2023-05-15T01:10:17;13.90;99.90
18067;DHT22;9158;51.528;7.192;2023-05-15T01:10:50;13.90;99.90
18067;DHT22;9158;51.528;7.192;2023-05-15T01:11:24;13.90;99.90
18067;DHT22;9158;51.528;7.192;2023-05-15T01:11:58;13.90;99.90
18067;DHT22;9158;51.528;7.192;2023-05-15T01:12:31;13.90;99.90
18067;DHT22;9158;51.528;7.192;2023-05-15T01:13:03;13.90;99.90
18067;DHT22;9158;51.528;7.192;2023-05-15T01:13:37;13.80;99.90
18067;DHT22;9158;51.528;7.192;2023-05-15T01:14:08;13.90;99.90
18067;DHT22;9158;51.528;7.192;2023-05-15T01:14:39;13.90;99.90
18067;DHT22;9158;51.528;7.192;2023-05-15T01:15:11;13.80;99.90
18067;DHT22;9158;51.528;7.192;2023-05-15T01:15:42;13.80;99.90
18067;DHT22;9158;51.528;7.192;2023-05-15T01:16:16;13.80;99.90
18067;DHT22;9158;51.528;7.192;2023-05-15T01:16:48;13.80;99.90
18067;DHT22;9158;51.528;7.192;2023-05-15T01:17:19;13.80;99.90
18067;DHT22;9158;51.528;7.192;2023-05-15T01:17:50;13.80;99.90
18067;DHT22;9158;51.528;7.192;2023-05-15T01:18:22;13.70;99.90
18067;DHT22;9158;51.528;7.192;2023-05-15T01:18:53;13.70;99.90
18067;DHT22;9158;51.528;7.192;2023-05-15T01:19:24;13.70;99.90
18067;DHT22;9158;51.528;7.192;2023-05-15T01:19:57;13.70;99.90
18067;DHT22;9158;51.528;7.192;2023-05-15T01:20:30;13.70;99.90
18067;DHT22;9158;51.528;7.192;2023-05-15T01:21:17;13.70;99.90
18067;DHT22;9158;51.528;7.192;2023-05-15T01:22:25;13.60;99.90
18067;DHT22;9158;51.528;7.192;2023-05-15T01:23:08;13.60;99.90
18067;DHT22;9158;51.528;7.192;2023-05-15T01:23:53;13.50;99.90
18067;DHT22;9158;51.528;7.192;2023-05-15T01:24:56;13.50;99.90
18067;DHT22;9158;51.528;7.192;2023-05-15T01:26:14;13.50;99.90
18067;DHT22;9158;51.528;7.192;2023-05-15T01:27:11;13.50;99.90
18067;DHT22;9158;51.528;7.192;2023-05-15T01:27:44;13.50;99.90
18067;DHT22;9158;51.528;7.192;2023-05-15T01:28:21;13.50;99.90
18067;DHT22;9158;51.528;7.192;2023-05-15T01:28:58;13.50;99.90
18067;DHT22;9158;51.528;7.192;2023-05-15T01:29:36;13.50;99.90
18067;DHT22;9158;51.528;7.192;2023-05-15T01:30:13;13.60;99.90
18067;DHT22;9158;51.528;7.192;2023-05-15T01:30:47;13.60;99.90
18067;DHT22;9158;51.528;7.192;2023-05-15T01:31:22;13.60;99.90
18067;DHT22;9158;51.528;7.192;2023-05-15T01:31:57;13.60;99.90
18067;DHT22;9158;51.528;7.192;2023-05-15T01:32:40;13.60;99.90
18067;DHT22;9158;51.528;7.192;2023-05-15T01:33:17;13.60;99.90
18067;DHT22;9158;51.528;7.192;2023-05-15T01:33:55;13.60;99.90
18067;DHT22;9158;51.528;7.192;2023-05-15T01:34:33;13.60;99.90
18067;DHT22;9158;51.528;7.192;2023-05-15T01:35:12;13.60;99.90
18067;DHT22;9158;51.528;7.192;2023-05-15T01:35:47;13.50;99.90
18067;DHT22;9158;51.528;7.192;2023-05-15T01:36:23;13.50;99.90
18067;DHT22;9158;51.528;7.192;2023-05-15T01:37:02;13.50;99.90
18067;DHT22;9158;51.528;7.192;2023-05-15T01:37:35;13.50;99.90
18067;DHT22;9158;51.528;7.192;2023-05-15T01:38:14;13.50;99.90
18067;DHT22;9158;51.528;7.192;2023-05-15T01:38:52;13.50;99.90
18067;DHT22;9158;51.528;7.192;2023-05-15T01:39:27;13.50;99.90
18067;DHT22;9158;51.528;7.192;2023-05-15T01:40:00;13.50;99.90
18067;DHT22;9158;51.528;7.192;2023-05-15T01:40:34;13.40;99.90
18067;DHT22;9158;51.528;7.192;2023-05-15T01:41:09;13.40;99.90
18067;DHT22;9158;51.528;7.192;2023-05-15T01:41:45;13.40;99.90
18067;DHT22;9158;51.528;7.192;2023-05-15T01:42:21;13.40;99.90
18067;DHT22;9158;51.528;7.192;2023-05-15T01:43:00;13.40;99.90
18067;DHT22;9158;51.528;7.192;2023-05-15T01:43:34;13.40;99.90
18067;DHT22;9158;51.528;7.192;2023-05-15T01:44:13;13.40;99.90
18067;DHT22;9158;51.528;7.192;2023-05-15T01:44:51;13.40;99.90
18067;DHT22;9158;51.528;7.192;2023-05-15T01:45:24;13.40;99.90
18067;DHT22;9158;51.528;7.192;2023-05-15T01:45:57;13.40;99.90
18067;DHT22;9158;51.528;7.192;2023-05-15T01:46:30;13.40;99.90
18067;DHT22;9158;51.528;7.192;2023-05-15T01:47:05;13.50;99.90
18067;DHT22;9158;51.528;7.192;2023-05-15T01:47:40;13.50;99.90
18067;DHT22;9158;51.528;7.192;2023-05-15T01:48:14;13.50;99.90
18067;DHT22;9158;51.528;7.192;2023-05-15T01:48:49;13.50;99.90
18067;DHT22;9158;51.528;7.192;2023-05-15T01:49:25;13.60;99.90
18067;DHT22;9158;51.528;7.192;2023-05-15T01:50:00;13.60;99.90
18067;DHT22;9158;51.528;7.192;2023-05-15T01:50:33;13.60;99.90
18067;DHT22;9158;51.528;7.192;2023-05-15T01:51:05;13.50;99.90
18067;DHT22;9158;51.528;7.192;2023-05-15T01:51:39;13.50;99.90
18067;DHT22;9158;51.528;7.192;2023-05-15T01:52:16;13.40;99.90
18067;DHT22;9158;51.528;7.192;2023-05-15T01:52:50;13.40;99.90
18067;DHT22;9158;51.528;7.192;2023-05-15T01:53:25;13.40;99.90
18067;DHT22;9158;51.528;7.192;2023-05-15T01:53:57;13.40;99.90
18067;DHT22;9158;51.528;7.192;2023-05-15T01:54:30;13.40;99.90
18067;DHT22;9158;51.528;7.192;2023-05-15T01:55:02;13.40;99.90
18067;DHT22;9158;51.528;7.192;2023-05-15T01:55:35;13.40;99.90
18067;DHT22;9158;51.528;7.192;2023-05-15T01:56:07;13.40;99.90
18067;DHT22;9158;51.528;7.192;2023-05-15T01:56:40;13.40;99.90
18067;DHT22;9158;51.528;7.192;2023-05-15T01:57:15;13.40;99.90
18067;DHT22;9158;51.528;7.192;2023-05-15T01:57:49;13.40;99.90
18067;DHT22;9158;51.528;7.192;2023-05-15T01:58:22;13.40;99.90
18067;DHT22;9158;51.528;7.192;2023-05-15T01:58:56;13.40;99.90
18067;DHT22;9158;51.528;7.192;2023-05-15T01:59:28;13.40;99.90
18067;DHT22;9158;51.528;7.192;2023-05-15T01:59:59;13.40;99.90
18067;DHT22;9158;51.528;7.192;2023-05-15T02:00:31;13.40;99.90
18067;DHT22;9158;51.528;7.192;2023-05-15T02:01:04;13.40;99.90
18067;DHT22;9158;51.528;7.192;2023-05-15T02:01:35;13.50;99.90
18067;DHT22;9158;51.528;7.192;2023-05-15T02:02:08;13.50;99.90
18067;DHT22;9158;51.528;7.192;2023-05-15T02:02:40;13.50;99.90
18067;DHT22;9158;51.528;7.192;2023-05-15T02:03:13;13.50;99.90
18067;DHT22;9158;51.528;7.192;2023-05-15T02:03:46;13.50;99.90
18067;DHT22;9158;51.528;7.192;2023-05-15T02:04:18;13.50;99.90
18067;DHT22;9158;51.528;7.192;2023-05-15T02:04:50;13.60;99.90
18067;DHT22;9158;51.528;7.192;2023-05-15T02:05:24;13.60;99.90
18067;DHT22;9158;51.528;7.192;2023-05-15T02:05:56;13.60;99.90
18067;DHT22;9158;51.528;7.192;2023-05-15T02:06:30;13.50;99.90
18067;DHT22;9158;51.528;7.192;2023-05-15T02:07:03;13.60;99.90
18067;DHT22;9158;51.528;7.192;2023-05-15T02:07:34;13.50;99.90
18067;DHT22;9158;51.528;7.192;2023-05-15T02:08:06;13.60;99.90
18067;DHT22;9158;51.528;7.192;2023-05-15T02:08:40;13.60;99.90
18067;DHT22;9158;51.528;7.192;2023-05-15T02:09:12;13.60;99.90
18067;DHT22;9158;51.528;7.192;2023-05-15T02:09:45;13.60;99.90
18067;DHT22;9158;51.528;7.192;2023-05-15T02:10:17;13.60;99.90
18067;DHT22;9158;51.528;7.192;2023-05-15T02:10:52;13.50;99.90
18067;DHT22;9158;51.528;7.192;2023-05-15T02:11:24;13.50;99.90
18067;DHT22;9158;51.528;7.192;2023-05-15T02:11:56;13.50;99.90
18067;DHT22;9158;51.528;7.192;2023-05-15T02:12:27;13.50;99.90
18067;DHT22;9158;51.528;7.192;2023-05-15T02:13:01;13.50;99.90
18067;DHT22;9158;51.528;7.192;2023-05-15T02:13:34;13.50;99.90
18067;DHT22;9158;51.528;7.192;2023-05-15T02:14:06;13.50;99.90
18067;DHT22;9158;51.528;7.192;2023-05-15T02:14:40;13.50;99.90
18067;DHT22;9158;51.528;7.192;2023-05-15T02:15:12;13.40;99.90
18067;DHT22;9158;51.528;7.192;2023-05-15T02:15:44;13.40;99.90
18067;DHT22;9158;51.528;7.192;2023-05-15T02:16:17;13.50;99.90
18067;DHT22;9158;51.528;7.192;2023-05-15T02:16:49;13.40;99.90
18067;DHT22;9158;51.528;7.192;2023-05-15T02:17:20;13.50;99.90
18067;DHT22;9158;51.528;7.192;2023-05-15T02:17:53;13.40;99.90
18067;DHT22;9158;51.528;7.192;2023-05-15T02:18:26;13.40;99.90
18067;DHT22;9158;51.528;7.192;2023-05-15T02:18:58;13.40;99.90
18067;DHT22;9158;51.528;7.192;2023-05-15T02:19:29;13.40;99.90
18067;DHT22;9158;51.528;7.192;2023-05-15T02:20:08;13.40;99.90
18067;DHT22;9158;51.528;7.192;2023-05-15T02:20:41;13.40;99.90
18067;DHT22;9158;51.528;7.192;2023-05-15T02:21:13;13.40;99.90
18067;DHT22;9158;51.528;7.192;2023-05-15T02:21:46;13.40;99.90
18067;DHT22;9158;51.528;7.192;2023-05-15T02:22:17;13.40;99.90
18067;DHT22;9158;51.528;7.192;2023-05-15T02:22:49;13.40;99.90
18067;DHT22;9158;51.528;7.192;2023-05-15T02:23:20;13.40;99.90
18067;DHT22;9158;51.528;7.192;2023-05-15T02:23:52;13.40;99.90
18067;DHT22;9158;51.528;7.192;2023-05-15T02:24:25;13.40;99.90
18067;DHT22;9158;51.528;7.192;2023-05-15T02:24:56;13.30;99.90
18067;DHT22;9158;51.528;7.192;2023-05-15T02:25:33;13.30;99.90
18067;DHT22;9158;51.528;7.192;2023-05-15T02:26:18;13.30;99.90
18067;DHT22;9158;51.528;7.192;2023-05-15T02:26:58;13.20;99.90
18067;DHT22;9158;51.528;7.192;2023-05-15T02:27:37;13.30;99.90
18067;DHT22;9158;51.528;7.192;2023-05-15T02:28:17;13.30;99.90
18067;DHT22;9158;51.528;7.192;2023-05-15T02:28:57;13.30;99.90
18067;DHT22;9158;51.528;7.192;2023-05-15T02:29:38;13.30;99.90
18067;DHT22;9158;51.528;7.192;2023-05-15T02:30:22;13.30;99.90
18067;DHT22;9158;51.528;7.192;2023-05-15T02:31:02;13.30;99.90
18067;DHT22;9158;51.528;7.192;2023-05-15T02:31:42;13.30;99.90
18067;DHT22;9158;51.528;7.192;2023-05-15T02:32:21;13.30;99.90
18067;DHT22;9158;51.528;7.192;2023-05-15T02:33:03;13.30;99.90
18067;DHT22;9158;51.528;7.192;2023-05-15T02:33:43;13.30;99.90
18067;DHT22;9158;51.528;7.192;2023-05-15T02:34:21;13.30;99.90
18067;DHT22;9158;51.528;7.192;2023-05-15T02:35:02;13.30;99.90
18067;DHT22;9158;51.528;7.192;2023-05-15T02:35:42;13.20;99.90
18067;DHT22;9158;51.528;7.192;2023-05-15T02:36:19;13.20;99.90
18067;DHT22;9158;51.528;7.192;2023-05-15T02:36:57;13.20;99.90
18067;DHT22;9158;51.528;7.192;2023-05-15T02:37:31;13.20;99.90
18067;DHT22;9158;51.528;7.192;2023-05-15T02:38:08;13.20;99.90
18067;DHT22;9158;51.528;7.192;2023-05-15T02:38:46;13.20;99.90
18067;DHT22;9158;51.528;7.192;2023-05-15T02:39:19;13.20;99.90
18067;DHT22;9158;51.528;7.192;2023-05-15T02:39:53;13.20;99.90
18067;DHT22;9158;51.528;7.192;2023-05-15T02:40:25;13.20;99.90
18067;DHT22;9158;51.528;7.192;2023-05-15T02:40:57;13.20;99.90
18067;DHT22;9158;51.528;7.192;2023-05-15T02:41:29;13.20;99.90
18067;DHT22;9158;51.528;7.192;2023-05-15T02:42:04;13.10;99.90
18067;DHT22;9158;51.528;7.192;2023-05-15T02:42:36;13.10;99.90
18067;DHT22;9158;51.528;7.192;2023-05-15T02:43:07;13.00;99.90
18067;DHT22;9158;51.528;7.192;2023-05-15T02:43:43;12.90;99.90
18067;DHT22;9158;51.528;7.192;2023-05-15T02:44:15;12.90;99.90
18067;DHT22;9158;51.528;7.192;2023-05-15T02:44:47;12.80;99.90
18067;DHT22;9158;51.528;7.192;2023-05-15T02:45:21;12.80;99.90
18067;DHT22;9158;51.528;7.192;2023-05-15T02:45:55;12.80;99.90
18067;DHT22;9158;51.528;7.192;2023-05-15T02:46:27;12.80;99.90
18067;DHT22;9158;51.528;7.192;2023-05-15T02:47:00;12.80;99.90
18067;DHT22;9158;51.528;7.192;2023-05-15T02:47:32;12.80;99.90
18067;DHT22;9158;51.528;7.192;2023-05-15T02:48:04;12.90;99.90
18067;DHT22;9158;51.528;7.192;2023-05-15T02:48:37;12.90;99.90
18067;DHT22;9158;51.528;7.192;2023-05-15T02:49:10;12.90;99.90
18067;DHT22;9158;51.528;7.192;2023-05-15T02:49:43;12.90;99.90
18067;DHT22;9158;51.528;7.192;2023-05-15T02:50:16;13.00;99.90
18067;DHT22;9158;51.528;7.192;2023-05-15T02:50:49;13.00;99.90
18067;DHT22;9158;51.528;7.192;2023-05-15T02:51:22;13.00;99.90
18067;DHT22;9158;51.528;7.192;2023-05-15T02:51:53;13.10;99.90
18067;DHT22;9158;51.528;7.192;2023-05-15T02:52:25;13.10;99.90
18067;DHT22;9158;51.528;7.192;2023-05-15T02:53:01;13.10;99.90
18067;DHT22;9158;51.528;7.192;2023-05-15T02:53:32;13.20;99.90
18067;DHT22;9158;51.528;7.192;2023-05-15T02:54:04;13.20;99.90
18067;DHT22;9158;51.528;7.192;2023-05-15T02:54:36;13.20;99.90
18067;DHT22;9158;51.528;7.192;2023-05-15T02:55:08;13.30;99.90
18067;DHT22;9158;51.528;7.192;2023-05-15T02:55:40;13.20;99.90
18067;DHT22;9158;51.528;7.192;2023-05-15T02:56:11;13.20;99.90
18067;DHT22;9158;51.528;7.192;2023-05-15T02:56:42;13.20;99.90
18067;DHT22;9158;51.528;7.192;2023-05-15T02:57:14;13.20;99.90
18067;DHT22;9158;51.528;7.192;2023-05-15T02:57:45;13.20;99.90
18067;DHT22;9158;51.528;7.192;2023-05-15T02:58:16;13.30;99.90
18067;DHT22;9158;51.528;7.192;2023-05-15T02:58:49;13.30;99.90
18067;DHT22;9158;51.528;7.192;2023-05-15T02:59:20;13.30;99.90
18067;DHT22;9158;51.528;7.192;2023-05-15T02:59:52;13.30;99.90
18067;DHT22;9158;51.528;7.192;2023-05-15T03:00:23;13.30;99.90
18067;DHT22;9158;51.528;7.192;2023-05-15T03:00:55;13.40;99.90
18067;DHT22;9158;51.528;7.192;2023-05-15T03:01:26;13.40;99.90
18067;DHT22;9158;51.528;7.192;2023-05-15T03:01:57;13.50;99.90
18067;DHT22;9158;51.528;7.192;2023-05-15T03:02:29;13.50;99.90
18067;DHT22;9158;51.528;7.192;2023-05-15T03:03:00;13.50;99.90
18067;DHT22;9158;51.528;7.192;2023-05-15T03:03:30;13.50;99.90
18067;DHT22;9158;51.528;7.192;2023-05-15T03:04:02;13.50;99.90
18067;DHT22;9158;51.528;7.192;2023-05-15T03:04:34;13.60;99.90
18067;DHT22;9158;51.528;7.192;2023-05-15T03:05:05;13.60;99.90
18067;DHT22;9158;51.528;7.192;2023-05-15T03:05:36;13.60;99.90
18067;DHT22;9158;51.528;7.192;2023-05-15T03:06:08;13.60;99.90
18067;DHT22;9158;51.528;7.192;2023-05-15T03:06:39;13.60;99.90
18067;DHT22;9158;51.528;7.192;2023-05-15T03:07:10;13.60;99.90
18067;DHT22;9158;51.528;7.192;2023-05-15T03:07:43;13.70;99.90
18067;DHT22;9158;51.528;7.192;2023-05-15T03:08:14;13.70;99.90
18067;DHT22;9158;51.528;7.192;2023-05-15T03:08:45;13.70;99.90
18067;DHT22;9158;51.528;7.192;2023-05-15T03:09:17;13.70;99.90
18067;DHT22;9158;51.528;7.192;2023-05-15T03:09:48;13.80;99.90
18067;DHT22;9158;51.528;7.192;2023-05-15T03:10:19;13.80;99.90
18067;DHT22;9158;51.528;7.192;2023-05-15T03:10:53;13.80;99.90
18067;DHT22;9158;51.528;7.192;2023-05-15T03:11:25;13.90;99.90
18067;DHT22;9158;51.528;7.192;2023-05-15T03:11:56;13.90;99.90
18067;DHT22;9158;51.528;7.192;2023-05-15T03:12:27;13.90;99.90
18067;DHT22;9158;51.528;7.192;2023-05-15T03:12:58;13.80;99.90
18067;DHT22;9158;51.528;7.192;2023-05-15T03:13:30;13.90;99.90
18067;DHT22;9158;51.528;7.192;2023-05-15T03:14:02;13.80;99.90
18067;DHT22;9158;51.528;7.192;2023-05-15T03:14:33;13.80;99.90
18067;DHT22;9158;51.528;7.192;2023-05-15T03:15:05;13.90;99.90
18067;DHT22;9158;51.528;7.192;2023-05-15T03:15:37;13.90;99.90
18067;DHT22;9158;51.528;7.192;2023-05-15T03:16:08;13.90;99.90
18067;DHT22;9158;51.528;7.192;2023-05-15T03:16:40;13.90;99.90
18067;DHT22;9158;51.528;7.192;2023-05-15T03:17:12;13.90;99.90
18067;DHT22;9158;51.528;7.192;2023-05-15T03:17:43;13.90;99.90
18067;DHT22;9158;51.528;7.192;2023-05-15T03:18:14;13.90;99.90
18067;DHT22;9158;51.528;7.192;2023-05-15T03:18:48;13.90;99.90
18067;DHT22;9158;51.528;7.192;2023-05-15T03:19:19;13.90;99.90
18067;DHT22;9158;51.528;7.192;2023-05-15T03:19:50;13.90;99.90
18067;DHT22;9158;51.528;7.192;2023-05-15T03:20:20;13.90;99.90
18067;DHT22;9158;51.528;7.192;2023-05-15T03:20:52;13.90;99.90
18067;DHT22;9158;51.528;7.192;2023-05-15T03:21:24;13.90;99.90
18067;DHT22;9158;51.528;7.192;2023-05-15T03:21:55;14.00;99.90
18067;DHT22;9158;51.528;7.192;2023-05-15T03:22:26;14.00;99.90
18067;DHT22;9158;51.528;7.192;2023-05-15T03:22:58;14.00;99.90
18067;DHT22;9158;51.528;7.192;2023-05-15T03:23:29;14.00;99.90
18067;DHT22;9158;51.528;7.192;2023-05-15T03:24:01;14.00;99.90
18067;DHT22;9158;51.528;7.192;2023-05-15T03:24:33;13.90;99.90
18067;DHT22;9158;51.528;7.192;2023-05-15T03:25:05;13.90;99.90
18067;DHT22;9158;51.528;7.192;2023-05-15T03:25:36;13.90;99.90
18067;DHT22;9158;51.528;7.192;2023-05-15T03:26:08;13.80;99.90
18067;DHT22;9158;51.528;7.192;2023-05-15T03:26:39;13.80;99.90
18067;DHT22;9158;51.528;7.192;2023-05-15T03:27:10;13.90;99.90
18067;DHT22;9158;51.528;7.192;2023-05-15T03:27:42;13.80;99.90
18067;DHT22;9158;51.528;7.192;2023-05-15T03:28:13;13.90;99.90
18067;DHT22;9158;51.528;7.192;2023-05-15T03:28:44;13.90;99.90
18067;DHT22;9158;51.528;7.192;2023-05-15T03:29:16;13.90;99.90
18067;DHT22;9158;51.528;7.192;2023-05-15T03:29:48;13.90;99.90
18067;DHT22;9158;51.528;7.192;2023-05-15T03:30:20;13.90;99.90
18067;DHT22;9158;51.528;7.192;2023-05-15T03:30:51;13.90;99.90
18067;DHT22;9158;51.528;7.192;2023-05-15T03:31:23;13.90;99.90
18067;DHT22;9158;51.528;7.192;2023-05-15T03:31:54;13.90;99.90
18067;DHT22;9158;51.528;7.192;2023-05-15T03:32:25;13.80;99.90
18067;DHT22;9158;51.528;7.192;2023-05-15T03:32:57;13.90;99.90
18067;DHT22;9158;51.528;7.192;2023-05-15T03:33:28;13.80;99.90
18067;DHT22;9158;51.528;7.192;2023-05-15T03:33:59;13.80;99.90